Nevihte Od: 10-08-2020 13:00 Do: 19:59 Opozorilo za: Nevihte Stopnja: Rumena info button
Visoke temperature Od: 10-08-2020 13:00 Do: 21:59 Opozorilo za: Visoke temperature Stopnja: Rumena info button
Legenda:
Majhna (0-210)
Zelo visoka (490 - 630)

Srednja (210 - 350)
Ekstremna (630+)

Visoka (350 - 490)


 
182.00
Date Temp. (°C) Wind Speed (km/h) Rain (mm) RH% Days Since Rain pwsFWI
Napovedi, vključno z današnjim dnem, so nad rdečo črto!
14/08/20 26,00 7,00 3,10 0,72 0 69,43
13/08/20 26,00 8,00 1,30 0,65 0 138,19
12/08/20 27,00 8,00 2,20 0,62 0 202,20
11/08/20 28,00 8,00 0,70 0,52 0 226,17
10/08/20 29,00 8,00 0,40 0,47 0 232,61
09/08/20 31,10 7,40 4,70 0,44 0 182,00
08/08/20 28,20 14,90 0,00 0,42 4 202,72
07/08/20 30,00 13,20 0,00 0,44 3 100,37
06/08/20 25,60 11,80 0,00 0,55 2 112,15
05/08/20 21,80 15,10 0,00 0,55 1 36,41
04/08/20 21,60 16,30 25,90 0,55 0 48,96
03/08/20 21,80 18,50 21,20 0,75 0 93,18
02/08/20 23,80 19,90 9,80 0,65 0 141,88
01/08/20 32,80 14,60 0,00 0,48 1 256,14
31/07/20 33,10 13,70 8,30 0,53 0 242,55
30/07/20 29,30 10,40 0,00 0,57 6 265,36
29/07/20 29,60 13,10 0,00 0,55 5 189,51
28/07/20 29,40 11,70 0,00 0,55 4 175,99
27/07/20 28,90 13,80 0,00 0,53 3 95,66
26/07/20 25,80 13,20 0,00 0,53 2 78,31
25/07/20 26,10 12,40 0,00 0,54 1 106,85
24/07/20 20,10 13,60 8,30 0,61 0 93,38
23/07/20 25,90 11,10 1,00 0,51 0 147,27
22/07/20 29,40 15,70 6,70 0,53 0 105,20
21/07/20 27,80 11,80 0,00 0,60 4 117,17
20/07/20 26,90 11,10 0,00 0,59 3 114,77
19/07/20 22,60 8,30 0,00 0,61 2 115,83
18/07/20 20,80 11,50 0,00 0,54 1 170,20
17/07/20 19,90 13,30 5,70 0,59 0 162,65
16/07/20 24,00 12,10 1,00 0,61 0 188,34
sucontract_SNC